sensor_id;sensor_type;location;lat;lon;timestamp;pressure;altitude;pressure_sealevel;temperature;humidity
78206;BME280;67480;48.920;12.880;2023-09-30T00:00:21;97652.81;;;15.85;64.71
78206;BME280;67480;48.920;12.880;2023-09-30T00:02:47;97652.81;;;15.85;64.79
78206;BME280;67480;48.920;12.880;2023-09-30T00:05:12;97653.09;;;15.83;64.46
78206;BME280;67480;48.920;12.880;2023-09-30T00:07:40;97654.97;;;15.83;64.43
78206;BME280;67480;48.920;12.880;2023-09-30T00:10:06;97638.97;;;15.78;64.23
78206;BME280;67480;48.920;12.880;2023-09-30T00:12:31;97643.22;;;15.79;63.74
78206;BME280;67480;48.920;12.880;2023-09-30T00:14:57;97654.34;;;15.76;63.92
78206;BME280;67480;48.920;12.880;2023-09-30T00:17:22;97638.16;;;15.72;64.04
78206;BME280;67480;48.920;12.880;2023-09-30T00:19:48;97648.44;;;15.69;63.95
78206;BME280;67480;48.920;12.880;2023-09-30T00:22:13;97647.38;;;15.64;63.58
78206;BME280;67480;48.920;12.880;2023-09-30T00:24:39;97644.94;;;15.63;63.68
78206;BME280;67480;48.920;12.880;2023-09-30T00:27:04;97648.91;;;15.55;63.96
78206;BME280;67480;48.920;12.880;2023-09-30T00:29:29;97642.47;;;15.51;64.25
78206;BME280;67480;48.920;12.880;2023-09-30T00:31:55;97654.66;;;15.47;64.15
78206;BME280;67480;48.920;12.880;2023-09-30T00:34:20;97658.06;;;15.42;64.06
78206;BME280;67480;48.920;12.880;2023-09-30T00:36:49;97660.97;;;15.41;64.02
78206;BME280;67480;48.920;12.880;2023-09-30T00:39:15;97676.34;;;15.39;64.35
78206;BME280;67480;48.920;12.880;2023-09-30T00:41:40;97669.38;;;15.33;64.63
78206;BME280;67480;48.920;12.880;2023-09-30T00:44:06;97677.34;;;15.33;64.48
78206;BME280;67480;48.920;12.880;2023-09-30T00:46:33;97669.91;;;15.35;64.79
78206;BME280;67480;48.920;12.880;2023-09-30T00:49:00;97665.13;;;15.32;64.89
78206;BME280;67480;48.920;12.880;2023-09-30T00:51:28;97675.44;;;15.28;65.23
78206;BME280;67480;48.920;12.880;2023-09-30T00:53:57;97670.94;;;15.29;65.26
78206;BME280;67480;48.920;12.880;2023-09-30T00:56:26;97676.22;;;15.29;65.59
78206;BME280;67480;48.920;12.880;2023-09-30T00:58:52;97669.81;;;15.25;65.27
78206;BME280;67480;48.920;12.880;2023-09-30T01:01:19;97676.97;;;15.24;66.12
78206;BME280;67480;48.920;12.880;2023-09-30T01:03:48;97679.84;;;15.23;66.04
78206;BME280;67480;48.920;12.880;2023-09-30T01:06:13;97676.91;;;15.19;66.26
78206;BME280;67480;48.920;12.880;2023-09-30T01:08:39;97680.88;;;15.16;66.42
78206;BME280;67480;48.920;12.880;2023-09-30T01:11:05;97677.41;;;15.16;66.27
78206;BME280;67480;48.920;12.880;2023-09-30T01:13:34;97686.16;;;15.16;65.98
78206;BME280;67480;48.920;12.880;2023-09-30T01:16:08;97681.44;;;15.18;65.83
78206;BME280;67480;48.920;12.880;2023-09-30T01:18:40;97689.13;;;15.20;65.60
78206;BME280;67480;48.920;12.880;2023-09-30T01:21:08;97684.59;;;15.20;65.38
78206;BME280;67480;48.920;12.880;2023-09-30T01:23:40;97677.72;;;15.19;65.34
78206;BME280;67480;48.920;12.880;2023-09-30T01:26:09;97682.50;;;15.23;66.10
78206;BME280;67480;48.920;12.880;2023-09-30T01:28:34;97681.94;;;15.20;65.49
78206;BME280;67480;48.920;12.880;2023-09-30T01:31:00;97688.75;;;15.11;65.75
78206;BME280;67480;48.920;12.880;2023-09-30T01:33:26;97685.88;;;15.13;65.95
78206;BME280;67480;48.920;12.880;2023-09-30T01:35:52;97696.47;;;15.13;65.83
78206;BME280;67480;48.920;12.880;2023-09-30T01:38:17;97699.94;;;15.13;65.99
78206;BME280;67480;48.920;12.880;2023-09-30T01:40:43;97699.44;;;15.16;65.31
78206;BME280;67480;48.920;12.880;2023-09-30T01:43:09;97698.94;;;15.19;65.42
78206;BME280;67480;48.920;12.880;2023-09-30T01:45:34;97694.41;;;15.20;64.92
78206;BME280;67480;48.920;12.880;2023-09-30T01:48:01;97700.03;;;15.24;64.92
78206;BME280;67480;48.920;12.880;2023-09-30T01:50:27;97686.75;;;15.24;64.85
78206;BME280;67480;48.920;12.880;2023-09-30T01:52:53;97686.28;;;15.27;64.61
78206;BME280;67480;48.920;12.880;2023-09-30T01:55:18;97679.91;;;15.28;64.30
78206;BME280;67480;48.920;12.880;2023-09-30T01:57:43;97687.88;;;15.28;64.43
78206;BME280;67480;48.920;12.880;2023-09-30T02:00:09;97692.16;;;15.29;63.90
78206;BME280;67480;48.920;12.880;2023-09-30T02:02:35;97692.16;;;15.29;64.38
78206;BME280;67480;48.920;12.880;2023-09-30T02:05:02;97693.13;;;15.23;64.73
78206;BME280;67480;48.920;12.880;2023-09-30T02:07:28;97698.94;;;15.19;64.63
78206;BME280;67480;48.920;12.880;2023-09-30T02:09:54;97701.03;;;15.17;64.46
78206;BME280;67480;48.920;12.880;2023-09-30T02:12:20;97701.53;;;15.14;65.39
78206;BME280;67480;48.920;12.880;2023-09-30T02:14:45;97691.13;;;15.08;65.61
78206;BME280;67480;48.920;12.880;2023-09-30T02:17:11;97703.03;;;15.05;65.59
78206;BME280;67480;48.920;12.880;2023-09-30T02:19:38;97696.28;;;14.97;65.51
78206;BME280;67480;48.920;12.880;2023-09-30T02:22:03;97695.69;;;14.90;65.67
78206;BME280;67480;48.920;12.880;2023-09-30T02:24:29;97694.00;;;14.84;65.77
78206;BME280;67480;48.920;12.880;2023-09-30T02:26:55;97696.94;;;14.83;66.14
78206;BME280;67480;48.920;12.880;2023-09-30T02:29:21;97696.84;;;14.78;65.87
78206;BME280;67480;48.920;12.880;2023-09-30T02:31:46;97701.66;;;14.81;66.00
78206;BME280;67480;48.920;12.880;2023-09-30T02:34:11;97699.81;;;14.81;66.11
78206;BME280;67480;48.920;12.880;2023-09-30T02:36:37;97700.06;;;14.80;66.41
78206;BME280;67480;48.920;12.880;2023-09-30T02:39:05;97694.13;;;14.72;66.55
78206;BME280;67480;48.920;12.880;2023-09-30T02:41:31;97695.44;;;14.70;66.59
78206;BME280;67480;48.920;12.880;2023-09-30T02:43:56;97707.31;;;14.67;66.54
78206;BME280;67480;48.920;12.880;2023-09-30T02:46:22;97698.75;;;14.60;66.54
78206;BME280;67480;48.920;12.880;2023-09-30T02:48:47;97693.16;;;14.57;66.73
78206;BME280;67480;48.920;12.880;2023-09-30T02:51:12;97703.44;;;14.53;66.17
78206;BME280;67480;48.920;12.880;2023-09-30T02:53:38;97697.53;;;14.46;66.91
78206;BME280;67480;48.920;12.880;2023-09-30T02:56:04;97703.78;;;14.40;67.04
78206;BME280;67480;48.920;12.880;2023-09-30T02:58:30;97706.38;;;14.35;67.45
78206;BME280;67480;48.920;12.880;2023-09-30T03:00:55;97703.16;;;14.33;67.46
78206;BME280;67480;48.920;12.880;2023-09-30T03:03:21;97711.59;;;14.29;67.61
78206;BME280;67480;48.920;12.880;2023-09-30T03:05:47;97706.78;;;14.26;67.53
78206;BME280;67480;48.920;12.880;2023-09-30T03:08:14;97713.66;;;14.27;67.54
78206;BME280;67480;48.920;12.880;2023-09-30T03:10:40;97708.03;;;14.24;67.37
78206;BME280;67480;48.920;12.880;2023-09-30T03:13:06;97715.09;;;14.18;67.34
78206;BME280;67480;48.920;12.880;2023-09-30T03:15:33;97716.66;;;14.14;67.61
78206;BME280;67480;48.920;12.880;2023-09-30T03:17:58;97728.19;;;14.08;67.65
78206;BME280;67480;48.920;12.880;2023-09-30T03:20:25;97721.19;;;14.02;67.81
78206;BME280;67480;48.920;12.880;2023-09-30T03:22:51;97719.59;;;14.01;67.75
78206;BME280;67480;48.920;12.880;2023-09-30T03:25:18;97711.09;;;13.99;68.02
78206;BME280;67480;48.920;12.880;2023-09-30T03:27:44;97718.16;;;13.93;68.22
78206;BME280;67480;48.920;12.880;2023-09-30T03:30:12;97724.25;;;13.94;68.20
78206;BME280;67480;48.920;12.880;2023-09-30T03:32:38;97722.66;;;13.93;68.31
78206;BME280;67480;48.920;12.880;2023-09-30T03:35:08;97723.72;;;13.92;68.53
78206;BME280;67480;48.920;12.880;2023-09-30T03:37:39;97716.22;;;13.89;68.41
78206;BME280;67480;48.920;12.880;2023-09-30T03:40:06;97726.50;;;13.85;68.41
78206;BME280;67480;48.920;12.880;2023-09-30T03:42:46;97724.41;;;13.87;68.45
78206;BME280;67480;48.920;12.880;2023-09-30T03:45:14;97733.41;;;13.86;68.34
78206;BME280;67480;48.920;12.880;2023-09-30T03:47:40;97725.69;;;13.84;68.22
78206;BME280;67480;48.920;12.880;2023-09-30T03:50:06;97731.00;;;13.84;68.12
78206;BME280;67480;48.920;12.880;2023-09-30T03:52:40;97726.19;;;13.81;68.46
78206;BME280;67480;48.920;12.880;2023-09-30T03:55:09;97727.78;;;13.82;68.45
78206;BME280;67480;48.920;12.880;2023-09-30T03:57:37;97729.06;;;13.80;68.64
78206;BME280;67480;48.920;12.880;2023-09-30T04:00:02;97731.94;;;13.78;68.34
78206;BME280;67480;48.920;12.880;2023-09-30T04:02:31;97738.25;;;13.77;68.63
78206;BME280;67480;48.920;12.880;2023-09-30T04:04:57;97742.44;;;13.73;68.60
78206;BME280;67480;48.920;12.880;2023-09-30T04:07:23;97740.59;;;13.74;68.50
78206;BME280;67480;48.920;12.880;2023-09-30T04:09:54;97756.16;;;13.70;68.75
78206;BME280;67480;48.920;12.880;2023-09-30T04:12:20;97759.03;;;13.69;68.67
78206;BME280;67480;48.920;12.880;2023-09-30T04:14:45;97753.09;;;13.61;68.80
78206;BME280;67480;48.920;12.880;2023-09-30T04:17:11;97745.28;;;13.55;68.42
78206;BME280;67480;48.920;12.880;2023-09-30T04:19:36;97744.16;;;13.51;69.09
78206;BME280;67480;48.920;12.880;2023-09-30T04:22:02;97748.88;;;13.49;69.20
78206;BME280;67480;48.920;12.880;2023-09-30T04:24:27;97746.81;;;13.51;69.20
78206;BME280;67480;48.920;12.880;2023-09-30T04:26:54;97745.22;;;13.50;69.43
78206;BME280;67480;48.920;12.880;2023-09-30T04:29:23;97751.31;;;13.50;69.63
78206;BME280;67480;48.920;12.880;2023-09-30T04:31:48;97759.25;;;13.50;69.53
78206;BME280;67480;48.920;12.880;2023-09-30T04:34:14;97764.28;;;13.52;69.52
78206;BME280;67480;48.920;12.880;2023-09-30T04:36:40;97752.69;;;13.53;69.79
78206;BME280;67480;48.920;12.880;2023-09-30T04:39:05;97764.38;;;13.57;69.45
78206;BME280;67480;48.920;12.880;2023-09-30T04:41:31;97759.66;;;13.59;69.58
78206;BME280;67480;48.920;12.880;2023-09-30T04:43:56;97761.84;;;13.62;69.61
78206;BME280;67480;48.920;12.880;2023-09-30T04:46:21;97764.47;;;13.62;69.79
78206;BME280;67480;48.920;12.880;2023-09-30T04:48:49;97776.66;;;13.63;70.14
78206;BME280;67480;48.920;12.880;2023-09-30T04:51:17;97780.34;;;13.62;70.33
78206;BME280;67480;48.920;12.880;2023-09-30T04:53:44;97780.94;;;13.64;69.98
78206;BME280;67480;48.920;12.880;2023-09-30T04:56:12;97771.16;;;13.64;70.06
78206;BME280;67480;48.920;12.880;2023-09-30T04:58:37;97777.22;;;13.65;70.45
78206;BME280;67480;48.920;12.880;2023-09-30T05:01:03;97787.91;;;13.70;70.43
78206;BME280;67480;48.920;12.880;2023-09-30T05:03:28;97789.50;;;13.71;70.05
78206;BME280;67480;48.920;12.880;2023-09-30T05:05:54;97792.72;;;13.73;70.15
78206;BME280;67480;48.920;12.880;2023-09-30T05:08:24;97796.75;;;13.76;70.20
78206;BME280;67480;48.920;12.880;2023-09-30T05:10:50;97806.53;;;13.75;70.10
78206;BME280;67480;48.920;12.880;2023-09-30T05:13:15;97807.81;;;13.73;70.56
78206;BME280;67480;48.920;12.880;2023-09-30T05:15:40;97801.25;;;13.75;70.37
78206;BME280;67480;48.920;12.880;2023-09-30T05:18:07;97799.72;;;13.79;70.34
78206;BME280;67480;48.920;12.880;2023-09-30T05:20:33;97796.06;;;13.80;70.42
78206;BME280;67480;48.920;12.880;2023-09-30T05:23:01;97803.50;;;13.83;70.16
78206;BME280;67480;48.920;12.880;2023-09-30T05:25:28;97802.47;;;13.84;70.09
78206;BME280;67480;48.920;12.880;2023-09-30T05:27:53;97789.22;;;13.84;70.23
78206;BME280;67480;48.920;12.880;2023-09-30T05:30:19;97800.47;;;13.92;69.89
78206;BME280;67480;48.920;12.880;2023-09-30T05:32:45;97808.50;;;13.97;69.68
78206;BME280;67480;48.920;12.880;2023-09-30T05:35:11;97802.72;;;14.00;69.93
78206;BME280;67480;48.920;12.880;2023-09-30T05:37:41;97805.94;;;14.02;69.73
78206;BME280;67480;48.920;12.880;2023-09-30T05:40:08;97794.06;;;14.04;69.29
78206;BME280;67480;48.920;12.880;2023-09-30T05:42:53;97800.25;;;14.10;69.28
78206;BME280;67480;48.920;12.880;2023-09-30T05:45:19;97797.13;;;14.13;69.25
78206;BME280;67480;48.920;12.880;2023-09-30T05:47:44;97789.75;;;14.15;68.75
78206;BME280;67480;48.920;12.880;2023-09-30T05:50:11;97787.66;;;14.17;69.06
78206;BME280;67480;48.920;12.880;2023-09-30T05:52:42;97794.06;;;14.21;68.92
78206;BME280;67480;48.920;12.880;2023-09-30T05:55:08;97786.69;;;14.23;68.83
78206;BME280;67480;48.920;12.880;2023-09-30T05:57:34;97797.28;;;14.23;69.28
78206;BME280;67480;48.920;12.880;2023-09-30T06:00:00;97797.78;;;14.20;69.25
78206;BME280;67480;48.920;12.880;2023-09-30T06:02:26;97803.88;;;14.21;69.49
78206;BME280;67480;48.920;12.880;2023-09-30T06:04:51;97807.81;;;14.18;69.57
78206;BME280;67480;48.920;12.880;2023-09-30T06:07:19;97816.81;;;14.17;69.47
78206;BME280;67480;48.920;12.880;2023-09-30T06:09:45;97811.50;;;14.17;69.75
78206;BME280;67480;48.920;12.880;2023-09-30T06:12:13;97809.66;;;14.18;69.52
78206;BME280;67480;48.920;12.880;2023-09-30T06:14:39;97817.34;;;14.19;69.76
78206;BME280;67480;48.920;12.880;2023-09-30T06:17:06;97814.16;;;14.17;70.01
78206;BME280;67480;48.920;12.880;2023-09-30T06:19:32;97815.16;;;14.16;69.98
78206;BME280;67480;48.920;12.880;2023-09-30T06:21:59;97816.81;;;14.17;70.10
78206;BME280;67480;48.920;12.880;2023-09-30T06:24:24;97811.97;;;14.14;70.06
78206;BME280;67480;48.920;12.880;2023-09-30T06:26:50;97830.53;;;14.14;70.06
78206;BME280;67480;48.920;12.880;2023-09-30T06:29:16;97838.22;;;14.16;70.06
78206;BME280;67480;48.920;12.880;2023-09-30T06:31:42;97839.50;;;14.13;70.28
78206;BME280;67480;48.920;12.880;2023-09-30T06:34:08;97842.72;;;14.15;69.84
78206;BME280;67480;48.920;12.880;2023-09-30T06:36:36;97852.50;;;14.15;69.92
78206;BME280;67480;48.920;12.880;2023-09-30T06:39:03;97850.88;;;14.14;70.15
78206;BME280;67480;48.920;12.880;2023-09-30T06:41:31;97867.59;;;14.14;70.20
78206;BME280;67480;48.920;12.880;2023-09-30T06:43:56;97876.56;;;14.13;70.08
78206;BME280;67480;48.920;12.880;2023-09-30T06:46:22;97874.19;;;14.12;70.53
78206;BME280;67480;48.920;12.880;2023-09-30T06:48:49;97867.25;;;14.11;70.16
78206;BME280;67480;48.920;12.880;2023-09-30T06:51:17;97874.97;;;14.12;70.28
78206;BME280;67480;48.920;12.880;2023-09-30T06:53:43;97878.41;;;14.13;70.38
78206;BME280;67480;48.920;12.880;2023-09-30T06:56:09;97880.84;;;14.14;70.39
78206;BME280;67480;48.920;12.880;2023-09-30T06:58:34;97871.03;;;14.15;70.36
78206;BME280;67480;48.920;12.880;2023-09-30T07:01:00;97870.78;;;14.16;70.69
78206;BME280;67480;48.920;12.880;2023-09-30T07:03:26;97878.75;;;14.16;70.57
78206;BME280;67480;48.920;12.880;2023-09-30T07:05:51;97872.91;;;14.14;70.40
78206;BME280;67480;48.920;12.880;2023-09-30T07:08:19;97874.72;;;14.14;70.51
78206;BME280;67480;48.920;12.880;2023-09-30T07:10:46;97870.78;;;14.16;70.82
78206;BME280;67480;48.920;12.880;2023-09-30T07:13:14;97871.16;;;14.20;70.96
78206;BME280;67480;48.920;12.880;2023-09-30T07:15:40;97869.84;;;14.22;70.94
78206;BME280;67480;48.920;12.880;2023-09-30T07:18:06;97870.41;;;14.24;70.76
78206;BME280;67480;48.920;12.880;2023-09-30T07:20:32;97872.03;;;14.25;70.69
78206;BME280;67480;48.920;12.880;2023-09-30T07:23:01;97877.91;;;14.27;70.31
78206;BME280;67480;48.920;12.880;2023-09-30T07:25:29;97881.13;;;14.29;70.48
78206;BME280;67480;48.920;12.880;2023-09-30T07:27:57;97876.31;;;14.26;70.13
78206;BME280;67480;48.920;12.880;2023-09-30T07:30:23;97882.19;;;14.28;70.65
78206;BME280;67480;48.920;12.880;2023-09-30T07:32:49;97888.03;;;14.30;70.75
78206;BME280;67480;48.920;12.880;2023-09-30T07:35:15;97885.38;;;14.30;70.75
78206;BME280;67480;48.920;12.880;2023-09-30T07:37:41;97900.25;;;14.32;70.78
78206;BME280;67480;48.920;12.880;2023-09-30T07:40:07;97900.25;;;14.32;70.80
78206;BME280;67480;48.920;12.880;2023-09-30T07:42:33;97909.00;;;14.32;70.77
78206;BME280;67480;48.920;12.880;2023-09-30T07:44:58;97905.53;;;14.32;70.45
78206;BME280;67480;48.920;12.880;2023-09-30T07:47:24;97911.63;;;14.32;70.44
78206;BME280;67480;48.920;12.880;2023-09-30T07:49:49;97917.25;;;14.36;70.52
78206;BME280;67480;48.920;12.880;2023-09-30T07:52:15;97918.88;;;14.37;70.37
78206;BME280;67480;48.920;12.880;2023-09-30T07:54:40;97929.47;;;14.37;70.32
78206;BME280;67480;48.920;12.880;2023-09-30T07:57:06;97921.28;;;14.38;69.69
78206;BME280;67480;48.920;12.880;2023-09-30T07:59:31;97914.13;;;14.39;70.22
78206;BME280;67480;48.920;12.880;2023-09-30T08:02:00;97913.09;;;14.40;70.41
78206;BME280;67480;48.920;12.880;2023-09-30T08:04:26;97905.69;;;14.42;70.46
78206;BME280;67480;48.920;12.880;2023-09-30T08:06:52;97904.09;;;14.41;70.36
78206;BME280;67480;48.920;12.880;2023-09-30T08:09:18;97905.69;;;14.42;70.05
78206;BME280;67480;48.920;12.880;2023-09-30T08:11:44;97904.91;;;14.41;70.29
78206;BME280;67480;48.920;12.880;2023-09-30T08:14:09;97909.19;;;14.42;69.83
78206;BME280;67480;48.920;12.880;2023-09-30T08:16:36;97916.66;;;14.45;69.79
78206;BME280;67480;48.920;12.880;2023-09-30T08:19:02;97910.50;;;14.45;70.01
78206;BME280;67480;48.920;12.880;2023-09-30T08:21:34;97896.72;;;14.43;70.03
78206;BME280;67480;48.920;12.880;2023-09-30T08:23:59;97899.59;;;14.41;69.88
78206;BME280;67480;48.920;12.880;2023-09-30T08:26:25;97911.00;;;14.42;69.94
78206;BME280;67480;48.920;12.880;2023-09-30T08:28:51;97915.38;;;14.48;70.00
78206;BME280;67480;48.920;12.880;2023-09-30T08:31:19;97924.34;;;14.47;69.77
78206;BME280;67480;48.920;12.880;2023-09-30T08:33:47;97929.63;;;14.47;69.89
78206;BME280;67480;48.920;12.880;2023-09-30T08:36:13;97924.34;;;14.47;70.05
78206;BME280;67480;48.920;12.880;2023-09-30T08:38:40;97935.50;;;14.49;69.79
78206;BME280;67480;48.920;12.880;2023-09-30T08:41:06;97932.59;;;14.50;70.10
78206;BME280;67480;48.920;12.880;2023-09-30T08:43:37;97930.22;;;14.49;70.29
78206;BME280;67480;48.920;12.880;2023-09-30T08:46:04;97917.75;;;14.49;70.02
78206;BME280;67480;48.920;12.880;2023-09-30T08:48:32;97923.84;;;14.50;70.15
78206;BME280;67480;48.920;12.880;2023-09-30T08:50:59;97924.22;;;14.53;70.25
78206;BME280;67480;48.920;12.880;2023-09-30T08:53:25;97933.50;;;14.56;70.16
78206;BME280;67480;48.920;12.880;2023-09-30T08:55:54;97929.50;;;14.53;69.84
78206;BME280;67480;48.920;12.880;2023-09-30T08:58:23;97935.03;;;14.52;69.81
78206;BME280;67480;48.920;12.880;2023-09-30T09:00:50;97934.06;;;14.58;70.25
78206;BME280;67480;48.920;12.880;2023-09-30T09:03:17;97929.81;;;14.57;69.94
78206;BME280;67480;48.920;12.880;2023-09-30T09:05:43;97945.25;;;14.60;69.97
78206;BME280;67480;48.920;12.880;2023-09-30T09:08:08;97941.53;;;14.61;69.79
78206;BME280;67480;48.920;12.880;2023-09-30T09:10:34;97945.72;;;14.57;70.09
78206;BME280;67480;48.920;12.880;2023-09-30T09:13:00;97946.84;;;14.61;70.04
78206;BME280;67480;48.920;12.880;2023-09-30T09:15:27;97956.16;;;14.64;70.16
78206;BME280;67480;48.920;12.880;2023-09-30T09:17:56;97950.06;;;14.63;69.96
78206;BME280;67480;48.920;12.880;2023-09-30T09:20:23;97949.84;;;14.65;70.12
78206;BME280;67480;48.920;12.880;2023-09-30T09:22:52;97951.19;;;14.67;69.97
78206;BME280;67480;48.920;12.880;2023-09-30T09:25:19;97946.72;;;14.68;69.96
78206;BME280;67480;48.920;12.880;2023-09-30T09:27:44;97945.66;;;14.69;69.46
78206;BME280;67480;48.920;12.880;2023-09-30T09:30:26;97952.31;;;14.71;69.91
78206;BME280;67480;48.920;12.880;2023-09-30T09:33:00;97947.03;;;14.71;69.34
78206;BME280;67480;48.920;12.880;2023-09-30T09:35:27;97950.78;;;14.75;69.17
78206;BME280;67480;48.920;12.880;2023-09-30T09:37:56;97954.28;;;14.76;69.13
78206;BME280;67480;48.920;12.880;2023-09-30T09:40:23;97951.34;;;14.78;69.17
78206;BME280;67480;48.920;12.880;2023-09-30T09:42:51;97934.66;;;14.77;68.69
78206;BME280;67480;48.920;12.880;2023-09-30T09:45:21;97945.56;;;14.81;68.93
78206;BME280;67480;48.920;12.880;2023-09-30T09:47:48;97945.56;;;14.81;69.20
78206;BME280;67480;48.920;12.880;2023-09-30T09:50:14;97936.59;;;14.82;69.15
78206;BME280;67480;48.920;12.880;2023-09-30T09:52:41;97941.91;;;14.82;69.11
78206;BME280;67480;48.920;12.880;2023-09-30T09:55:10;97927.00;;;14.81;69.25
78206;BME280;67480;48.920;12.880;2023-09-30T09:57:36;97932.88;;;14.83;69.44
78206;BME280;67480;48.920;12.880;2023-09-30T10:00:02;97929.19;;;14.84;69.23
78206;BME280;67480;48.920;12.880;2023-09-30T10:02:32;97921.22;;;14.84;69.31
78206;BME280;67480;48.920;12.880;2023-09-30T10:04:57;97913.28;;;14.84;69.43
78206;BME280;67480;48.920;12.880;2023-09-30T10:07:34;97904.28;;;14.85;69.34
78206;BME280;67480;48.920;12.880;2023-09-30T10:10:03;97904.28;;;14.85;69.14
78206;BME280;67480;48.920;12.880;2023-09-30T10:12:40;97912.00;;;14.86;69.17
78206;BME280;67480;48.920;12.880;2023-09-30T10:15:38;97914.63;;;14.86;69.10
78206;BME280;67480;48.920;12.880;2023-09-30T10:18:11;97912.78;;;14.87;69.39
78206;BME280;67480;48.920;12.880;2023-09-30T10:20:38;97919.72;;;14.88;69.08
78206;BME280;67480;48.920;12.880;2023-09-30T10:23:27;97922.09;;;14.89;69.22
78206;BME280;67480;48.920;12.880;2023-09-30T10:28:40;97924.53;;;14.91;68.87
78206;BME280;67480;48.920;12.880;2023-09-30T10:31:13;97920.81;;;14.92;68.43
78206;BME280;67480;48.920;12.880;2023-09-30T10:36:30;97930.94;;;14.95;68.19
78206;BME280;67480;48.920;12.880;2023-09-30T10:38:56;97921.97;;;14.96;68.07
78206;BME280;67480;48.920;12.880;2023-09-30T10:46:51;97927.00;;;14.97;67.75
78206;BME280;67480;48.920;12.880;2023-09-30T10:51:43;97925.97;;;14.98;67.56
78206;BME280;67480;48.920;12.880;2023-09-30T10:54:13;97933.69;;;15.00;67.51
78206;BME280;67480;48.920;12.880;2023-09-30T10:56:38;97930.22;;;15.00;67.54
78206;BME280;67480;48.920;12.880;2023-09-30T10:59:03;97923.06;;;15.00;67.65
78206;BME280;67480;48.920;12.880;2023-09-30T11:01:34;97914.25;;;14.94;67.70
78206;BME280;67480;48.920;12.880;2023-09-30T11:04:01;97919.84;;;14.98;67.82
78206;BME280;67480;48.920;12.880;2023-09-30T11:06:35;97916.16;;;14.99;67.68
78206;BME280;67480;48.920;12.880;2023-09-30T11:09:05;97926.28;;;15.02;67.64
78206;BME280;67480;48.920;12.880;2023-09-30T11:11:58;97926.88;;;15.04;67.50
78206;BME280;67480;48.920;12.880;2023-09-30T11:14:32;97912.94;;;14.97;67.54
78206;BME280;67480;48.920;12.880;2023-09-30T11:16:58;97919.94;;;15.03;67.16
78206;BME280;67480;48.920;12.880;2023-09-30T11:19:25;97919.38;;;15.01;67.13
78206;BME280;67480;48.920;12.880;2023-09-30T11:21:55;97924.22;;;15.04;67.38
78206;BME280;67480;48.920;12.880;2023-09-30T11:24:23;97916.72;;;15.01;67.34
78206;BME280;67480;48.920;12.880;2023-09-30T11:26:53;97912.47;;;15.00;67.24
78206;BME280;67480;48.920;12.880;2023-09-30T11:29:21;97916.72;;;15.01;67.21
78206;BME280;67480;48.920;12.880;2023-09-30T11:31:48;97915.19;;;15.05;67.11
78206;BME280;67480;48.920;12.880;2023-09-30T11:34:16;97923.22;;;15.10;67.09
78206;BME280;67480;48.920;12.880;2023-09-30T11:36:50;97918.66;;;15.06;67.11
78206;BME280;67480;48.920;12.880;2023-09-30T11:39:29;97916.31;;;15.09;67.13
78206;BME280;67480;48.920;12.880;2023-09-30T11:41:55;97916.31;;;15.09;66.88
78206;BME280;67480;48.920;12.880;2023-09-30T11:44:22;97910.78;;;15.11;67.22
78206;BME280;67480;48.920;12.880;2023-09-30T11:46:58;97910.78;;;15.11;67.40
78206;BME280;67480;48.920;12.880;2023-09-30T11:49:34;97907.31;;;15.10;67.93
78206;BME280;67480;48.920;12.880;2023-09-30T11:52:01;97914.22;;;15.11;67.36
78206;BME280;67480;48.920;12.880;2023-09-30T11:54:29;97911.34;;;15.13;67.15
78206;BME280;67480;48.920;12.880;2023-09-30T11:56:56;97907.63;;;15.14;67.40
78206;BME280;67480;48.920;12.880;2023-09-30T11:59:21;97911.34;;;15.13;66.92
78206;BME280;67480;48.920;12.880;2023-09-30T12:01:48;97896.44;;;15.12;67.56
78206;BME280;67480;48.920;12.880;2023-09-30T12:04:17;97899.09;;;15.12;67.54
78206;BME280;67480;48.920;12.880;2023-09-30T12:06:45;97897.25;;;15.12;67.54
78206;BME280;67480;48.920;12.880;2023-09-30T12:09:12;97901.53;;;15.13;67.70
78206;BME280;67480;48.920;12.880;2023-09-30T12:11:41;97903.59;;;15.11;67.67
78206;BME280;67480;48.920;12.880;2023-09-30T12:14:11;97906.81;;;15.13;67.55
78206;BME280;67480;48.920;12.880;2023-09-30T12:16:37;97902.31;;;15.14;67.69
78206;BME280;67480;48.920;12.880;2023-09-30T12:19:02;97897.81;;;15.14;67.82
78206;BME280;67480;48.920;12.880;2023-09-30T12:21:28;97909.78;;;15.17;67.88
78206;BME280;67480;48.920;12.880;2023-09-30T12:23:54;97909.78;;;15.17;67.58
78206;BME280;67480;48.920;12.880;2023-09-30T12:26:19;97907.13;;;15.17;67.69
78206;BME280;67480;48.920;12.880;2023-09-30T12:28:45;97898.56;;;15.10;67.11
78206;BME280;67480;48.920;12.880;2023-09-30T12:31:11;97912.22;;;15.18;67.78
78206;BME280;67480;48.920;12.880;2023-09-30T12:33:36;97910.59;;;15.17;68.69
78206;BME280;67480;48.920;12.880;2023-09-30T12:36:04;97904.25;;;15.18;68.25
78206;BME280;67480;48.920;12.880;2023-09-30T12:38:29;97899.19;;;15.17;67.78
78206;BME280;67480;48.920;12.880;2023-09-30T12:40:55;97896.84;;;15.20;67.55
78206;BME280;67480;48.920;12.880;2023-09-30T12:43:21;97895.25;;;15.19;67.67
78206;BME280;67480;48.920;12.880;2023-09-30T12:45:50;97891.53;;;15.20;67.36
78206;BME280;67480;48.920;12.880;2023-09-30T12:48:16;97880.03;;;15.15;67.17
78206;BME280;67480;48.920;12.880;2023-09-30T12:50:43;97879.31;;;15.19;67.25
78206;BME280;67480;48.920;12.880;2023-09-30T12:53:09;97875.06;;;15.18;67.28
78206;BME280;67480;48.920;12.880;2023-09-30T12:55:35;97880.69;;;15.22;66.71
78206;BME280;67480;48.920;12.880;2023-09-30T12:58:01;97886.00;;;15.22;66.87
78206;BME280;67480;48.920;12.880;2023-09-30T13:00:28;97886.22;;;15.20;66.48
78206;BME280;67480;48.920;12.880;2023-09-30T13:02:56;97882.19;;;15.18;66.65